Jordan, Montana
Current Conditions -  °F | °C
As of 7:53 AM on Monday 22 Dec 2014 (Local Time) from KGGW Reporting Station
Overcast Overcast  
Wind Chill: 19°   Ceiling: 1500
Heat Index: 32°   Visibility: 10mi
Dew Point: 26°   Wind: 24mph
Humidity: 79%   Direction: 320°NW
Pressure: 29.64"   Gusts: 32mph
Location:  47.32°N, 106.91°W
Report Text: KGGW 221453Z AUTO 32021G28KT 10SM OVC015 00/M03 A2964 RMK AO2 PK WND 32028/1453 SLP060 T00001033 53013
Loading
Personal Weather Stations






























Interactive Weather Map New forecast layout! Learn more

10-Day Weather Forecast

Advertisements
Track Severe Weather on mobile